Terminal Aerodrome Forecast
Issued by NWS

Home | Current Version | Previous Version | Text Only | Print | Product List | Glossary On
Versions: 1 2 3 4 5 6 7 8 9 10 11 12
000
FTUS46 KSGX 152300
TAFTRM
TAF
KTRM 152320Z 1600/1624 16009KT P6SM SCT100
     FM160200 VRB05KT P6SM SKC
     FM161800 14010G18KT P6SM SCT100
      TEMPO 1620/1624 4SM DU=

USA.gov is the U.S. government's official web portal to all federal, state and local government web resources and services.